Time;durP1;ratioP1;P1;durP2;ratioP2;P2;SDS_P1;SDS_P2;PMS_P1;PMS_P2;Temp;Humidity;BMP_temperature;BMP_pressure;BME280_temperature;BME280_humidity;BME280_pressure;Samples;Min_cycle;Max_cycle;Signal;HPM_P1;HPM_P2
2022/07/17 00:00:19;;;;;;;3.90;2.93;;;17.80;73.00;;;;;;5060040;28;20474;-49
2022/07/17 00:02:47;;;;;;;6.80;3.67;;;17.60;72.60;;;;;;5058459;28;20474;-50
2022/07/17 00:05:16;;;;;;;4.23;3.27;;;17.50;73.30;;;;;;5059756;28;21067;-49
2022/07/17 00:07:42;;;;;;;5.20;3.33;;;17.50;73.90;;;;;;5034312;28;20469;-49
2022/07/17 00:10:09;;;;;;;3.37;3.07;;;17.30;73.60;;;;;;5058928;28;20483;-49
2022/07/17 00:12:37;;;;;;;8.77;3.17;;;17.30;73.60;;;;;;5053794;28;20474;-50
2022/07/17 00:15:04;;;;;;;3.90;2.97;;;17.30;73.80;;;;;;5045268;28;20591;-49
2022/07/17 00:17:31;;;;;;;6.33;2.90;;;17.30;72.80;;;;;;5056313;28;20482;-49
2022/07/17 00:19:58;;;;;;;2.60;2.13;;;17.20;73.80;;;;;;5051925;28;20576;-49
2022/07/17 00:22:27;;;;;;;5.00;2.97;;;17.10;74.10;;;;;;5063657;28;20859;-49
2022/07/17 00:24:54;;;;;;;3.93;3.00;;;17.00;74.00;;;;;;5061030;28;20550;-49
2022/07/17 00:27:20;;;;;;;6.43;3.37;;;17.00;74.50;;;;;;5062213;28;20548;-49
2022/07/17 00:29:47;;;;;;;13.60;2.80;;;16.90;73.60;;;;;;5055762;28;20471;-49
2022/07/17 00:32:14;;;;;;;5.20;3.50;;;16.80;73.90;;;;;;5060283;28;20482;-50
2022/07/17 00:34:41;;;;;;;3.83;3.43;;;16.80;74.60;;;;;;5060996;28;21051;-49
2022/07/17 00:37:07;;;;;;;4.13;3.27;;;16.80;74.30;;;;;;5058340;28;20501;-49
2022/07/17 00:39:35;;;;;;;3.17;2.87;;;16.70;74.70;;;;;;5061720;28;20516;-50
2022/07/17 00:42:02;;;;;;;2.97;2.67;;;16.50;75.10;;;;;;5062214;28;20478;-49
2022/07/17 00:44:29;;;;;;;4.47;3.17;;;16.50;75.70;;;;;;5052869;28;20478;-49
2022/07/17 00:46:56;;;;;;;8.20;3.10;;;16.40;75.10;;;;;;5060459;28;21101;-49
2022/07/17 00:49:22;;;;;;;4.67;3.30;;;16.30;75.80;;;;;;5062599;28;20841;-49
2022/07/17 00:51:49;;;;;;;5.50;3.70;;;16.00;77.20;;;;;;5060697;28;20509;-49
2022/07/17 00:54:18;;;;;;;3.83;3.47;;;15.90;77.20;;;;;;5060093;28;20589;-49
2022/07/17 00:56:48;;;;;;;5.73;3.17;;;15.80;77.20;;;;;;5050826;28;20478;-49
2022/07/17 00:59:16;;;;;;;3.70;3.10;;;15.70;76.90;;;;;;5065299;28;20623;-49
2022/07/17 01:01:42;;;;;;;4.30;3.40;;;15.60;76.70;;;;;;5065119;28;20479;-49
2022/07/17 01:04:09;;;;;;;4.93;3.80;;;15.60;77.20;;;;;;5064763;28;20589;-49
2022/07/17 01:06:36;;;;;;;5.43;3.60;;;15.70;77.70;;;;;;5061549;28;20582;-49
2022/07/17 01:09:03;;;;;;;5.53;4.30;;;15.70;77.70;;;;;;5064045;28;20486;-49
2022/07/17 01:11:30;;;;;;;4.10;3.70;;;15.70;78.30;;;;;;5066175;28;20491;-49
2022/07/17 01:13:58;;;;;;;3.90;3.50;;;15.80;77.40;;;;;;5064169;28;20477;-49
2022/07/17 01:16:25;;;;;;;9.50;4.10;;;15.80;77.60;;;;;;5061627;28;20488;-49
2022/07/17 01:18:53;;;;;;;5.83;3.90;;;15.80;77.20;;;;;;5064649;28;20687;-49
2022/07/17 01:21:21;;;;;;;3.43;3.13;;;15.80;76.90;;;;;;5064739;28;20482;-50
2022/07/17 01:23:48;;;;;;;5.67;3.10;;;15.70;76.90;;;;;;5057074;28;20830;-49
2022/07/17 01:26:15;;;;;;;4.17;3.10;;;15.60;76.10;;;;;;5065633;28;20915;-49
2022/07/17 01:28:41;;;;;;;6.63;4.40;;;15.60;76.10;;;;;;5054427;28;20984;-49
2022/07/17 01:31:08;;;;;;;3.50;3.20;;;15.50;76.20;;;;;;5067950;28;20481;-49
2022/07/17 01:33:35;;;;;;;5.13;3.43;;;15.50;77.40;;;;;;5060191;28;20475;-49
2022/07/17 01:36:01;;;;;;;3.43;3.13;;;15.40;77.90;;;;;;5058791;28;20675;-49
2022/07/17 01:38:29;;;;;;;5.23;4.40;;;15.40;78.50;;;;;;5064530;28;20482;-49
2022/07/17 01:40:56;;;;;;;5.13;4.20;;;15.40;77.30;;;;;;5066106;28;20477;-49
2022/07/17 01:43:23;;;;;;;4.03;3.67;;;15.40;77.70;;;;;;5057579;28;20611;-49
2022/07/17 01:45:49;;;;;;;6.07;5.50;;;15.40;77.70;;;;;;5063100;28;20474;-49
2022/07/17 01:48:27;;;;;;;19.70;5.37;;;15.30;77.10;;;;;;5041755;28;20486;-49
2022/07/17 01:50:54;;;;;;;3.43;2.97;;;15.30;78.00;;;;;;5064661;28;21002;-49
2022/07/17 01:53:21;;;;;;;4.83;4.17;;;15.20;78.40;;;;;;5064845;28;20477;-49
2022/07/17 01:55:49;;;;;;;5.07;4.57;;;15.20;78.40;;;;;;5063857;28;20481;-48
2022/07/17 01:58:16;;;;;;;5.87;3.27;;;15.20;78.10;;;;;;5041508;28;20481;-48
2022/07/17 02:00:44;;;;;;;7.63;3.50;;;15.20;78.60;;;;;;5060008;28;20489;-48
2022/07/17 02:03:10;;;;;;;3.40;3.10;;;15.10;76.70;;;;;;5064478;28;20963;-49
2022/07/17 02:05:37;;;;;;;4.27;3.87;;;15.10;76.40;;;;;;5057273;28;20482;-49
2022/07/17 02:08:04;;;;;;;3.23;2.90;;;15.00;75.80;;;;;;5057907;28;20469;-49
2022/07/17 02:10:31;;;;;;;4.20;3.47;;;15.00;76.70;;;;;;5055717;28;20478;-48
2022/07/17 02:12:59;;;;;;;2.90;2.60;;;14.80;77.70;;;;;;5064532;28;20482;-48
2022/07/17 02:15:26;;;;;;;3.50;3.20;;;14.60;78.00;;;;;;5061934;28;20482;-48
2022/07/17 02:17:53;;;;;;;3.73;3.43;;;14.50;78.10;;;;;;5061881;28;20951;-48
2022/07/17 02:20:20;;;;;;;4.53;3.13;;;14.30;78.40;;;;;;5064772;28;20473;-48
2022/07/17 02:22:46;;;;;;;5.27;4.17;;;14.30;79.00;;;;;;5052919;28;20478;-49
2022/07/17 02:25:14;;;;;;;4.13;3.70;;;14.30;79.80;;;;;;5062664;28;20493;-48
2022/07/17 02:27:42;;;;;;;6.17;4.07;;;14.20;79.00;;;;;;5061646;28;20470;-48
2022/07/17 02:30:13;;;;;;;4.17;3.63;;;14.20;79.00;;;;;;5062984;28;20482;-48
2022/07/17 02:32:41;;;;;;;5.87;4.77;;;14.20;79.60;;;;;;5061645;28;20583;-48
2022/07/17 02:35:09;;;;;;;3.80;3.30;;;14.10;79.20;;;;;;5066038;28;20479;-48
2022/07/17 02:37:36;;;;;;;6.47;3.07;;;14.00;78.80;;;;;;5056002;28;20882;-49
2022/07/17 02:40:04;;;;;;;4.57;3.50;;;13.90;78.20;;;;;;5041557;28;20490;-48
2022/07/17 02:42:31;;;;;;;5.10;3.60;;;13.90;79.20;;;;;;5058154;28;21042;-48
2022/07/17 02:44:59;;;;;;;2.90;2.70;;;13.90;79.30;;;;;;5057039;28;21537;-48
2022/07/17 02:47:30;;;;;;;4.57;3.80;;;13.90;79.80;;;;;;5062634;28;20475;-49
2022/07/17 02:49:56;;;;;;;7.80;5.13;;;13.80;79.70;;;;;;5056201;28;20490;-48
2022/07/17 02:52:23;;;;;;;4.30;3.53;;;13.90;78.60;;;;;;5054792;28;20505;-48
2022/07/17 02:54:50;;;;;;;6.43;5.27;;;13.90;78.90;;;;;;5060537;28;20478;-49
2022/07/17 02:57:18;;;;;;;5.63;3.97;;;13.90;79.20;;;;;;5054520;28;20479;-48
2022/07/17 02:59:45;;;;;;;5.33;4.80;;;13.90;78.60;;;;;;5058585;28;21089;-49
2022/07/17 03:02:12;;;;;;;2.93;2.63;;;13.90;78.90;;;;;;5058129;28;20479;-48
2022/07/17 03:04:40;;;;;;;4.23;3.83;;;13.90;79.40;;;;;;5058832;28;20541;-48
2022/07/17 03:07:07;;;;;;;4.33;3.17;;;13.80;78.90;;;;;;5056982;28;21018;-48
2022/07/17 03:09:33;;;;;;;4.80;4.37;;;13.70;79.00;;;;;;5057773;28;20471;-53
2022/07/17 03:12:00;;;;;;;3.70;3.40;;;13.60;78.90;;;;;;5057911;28;20479;-48
2022/07/17 03:14:27;;;;;;;3.20;2.90;;;13.60;79.50;;;;;;5057279;28;20477;-49
2022/07/17 03:16:54;;;;;;;5.23;4.00;;;13.50;79.30;;;;;;5057129;28;20463;-48
2022/07/17 03:19:20;;;;;;;3.67;3.37;;;13.40;80.30;;;;;;5056309;28;20948;-48
2022/07/17 03:21:48;;;;;;;4.20;3.90;;;13.30;79.20;;;;;;5058247;28;20490;-48
2022/07/17 03:24:15;;;;;;;5.33;3.53;;;13.30;79.80;;;;;;5058844;28;20528;-48
2022/07/17 03:26:42;;;;;;;6.87;5.27;;;13.30;79.00;;;;;;5055888;28;20566;-48
2022/07/17 03:29:09;;;;;;;3.67;3.17;;;13.30;80.10;;;;;;5060354;28;20490;-48
2022/07/17 03:31:35;;;;;;;5.03;3.53;;;13.30;78.90;;;;;;5061777;28;20492;-48
2022/07/17 03:34:02;;;;;;;4.50;3.33;;;13.30;79.40;;;;;;5063918;28;20475;-48
2022/07/17 03:36:29;;;;;;;4.33;3.90;;;13.30;80.40;;;;;;5058325;28;21017;-48
2022/07/17 03:38:57;;;;;;;4.00;3.60;;;13.30;80.40;;;;;;5056208;28;20839;-48
2022/07/17 03:41:23;;;;;;;8.30;4.73;;;13.30;80.60;;;;;;5052670;28;20497;-47
2022/07/17 03:43:50;;;;;;;5.67;5.17;;;13.30;81.50;;;;;;5055241;28;20881;-48
2022/07/17 03:46:17;;;;;;;5.40;4.00;;;13.30;81.80;;;;;;5057581;28;20995;-48
2022/07/17 03:48:43;;;;;;;6.80;5.77;;;13.40;82.30;;;;;;5058218;28;20486;-48
2022/07/17 03:51:10;;;;;;;5.77;3.67;;;13.40;82.30;;;;;;5054111;28;20486;-48
2022/07/17 03:53:37;;;;;;;3.93;3.60;;;13.40;81.90;;;;;;5059349;28;20483;-48
2022/07/17 03:56:05;;;;;;;4.40;3.83;;;13.40;82.00;;;;;;5057760;28;20960;-48
2022/07/17 03:58:32;;;;;;;8.07;4.80;;;13.50;82.10;;;;;;5052454;28;20912;-48
2022/07/17 04:00:59;;;;;;;4.80;3.70;;;13.50;81.80;;;;;;5058455;28;20489;-48
2022/07/17 04:03:26;;;;;;;7.20;4.57;;;13.50;81.80;;;;;;5023612;28;21151;-48
2022/07/17 04:05:53;;;;;;;5.00;4.60;;;13.50;81.70;;;;;;5044919;28;20933;-48
2022/07/17 04:08:20;;;;;;;4.00;3.70;;;13.50;80.60;;;;;;5055432;28;20471;-48
2022/07/17 04:10:47;;;;;;;5.97;4.97;;;13.50;80.10;;;;;;5056049;28;20483;-48
2022/07/17 04:13:15;;;;;;;4.30;3.90;;;13.40;80.10;;;;;;5056754;28;20478;-48
2022/07/17 04:15:52;;;;;;;3.97;3.10;;;13.40;80.70;;;;;;5056963;28;20471;-48
2022/07/17 04:18:21;;;;;;;5.50;3.70;;;13.40;81.60;;;;;;5062189;28;21808;-48
2022/07/17 04:20:48;;;;;;;5.47;4.97;;;13.40;82.20;;;;;;5058770;28;21035;-47
2022/07/17 04:23:15;;;;;;;6.83;2.90;;;13.20;80.00;;;;;;5052736;28;21321;-48
2022/07/17 04:25:44;;;;;;;4.60;4.20;;;13.10;80.30;;;;;;5056000;28;20492;-48
2022/07/17 04:28:11;;;;;;;4.20;3.60;;;13.10;80.70;;;;;;5040742;28;20989;-48
2022/07/17 04:30:40;;;;;;;4.73;4.30;;;13.10;80.90;;;;;;5041904;28;20490;-48
2022/07/17 04:33:07;;;;;;;3.67;3.00;;;13.10;81.70;;;;;;5059301;28;20494;-48
2022/07/17 04:35:35;;;;;;;4.53;3.83;;;13.20;81.40;;;;;;5060672;28;20909;-48
2022/07/17 04:38:02;;;;;;;4.13;3.00;;;13.10;80.80;;;;;;5057815;28;21052;-48
2022/07/17 04:40:29;;;;;;;9.80;4.57;;;13.20;81.20;;;;;;5057282;28;20467;-48
2022/07/17 04:42:55;;;;;;;13.10;4.73;;;13.20;81.70;;;;;;5056684;28;21063;-48
2022/07/17 04:45:22;;;;;;;6.90;4.30;;;13.30;82.50;;;;;;5051065;28;21035;-48
2022/07/17 04:47:50;;;;;;;4.80;4.40;;;13.30;83.00;;;;;;5047972;28;20658;-48
2022/07/17 04:50:17;;;;;;;3.87;3.57;;;13.40;81.50;;;;;;5060901;28;20482;-48
2022/07/17 04:52:44;;;;;;;5.17;4.77;;;13.50;81.60;;;;;;5056822;28;20502;-48
2022/07/17 04:55:11;;;;;;;3.70;2.93;;;13.70;81.80;;;;;;5056572;28;20475;-48
2022/07/17 04:57:37;;;;;;;8.27;4.43;;;13.80;81.80;;;;;;5061748;28;20486;-48
2022/07/17 05:00:05;;;;;;;4.07;2.80;;;13.90;81.90;;;;;;5026003;28;20506;-48
2022/07/17 05:02:32;;;;;;;6.47;3.53;;;14.10;82.50;;;;;;5056249;28;21067;-48
2022/07/17 05:05:00;;;;;;;6.70;3.60;;;14.20;83.40;;;;;;5056620;28;20858;-48
2022/07/17 05:07:27;;;;;;;7.30;4.07;;;14.30;83.50;;;;;;5058289;28;20493;-48
2022/07/17 05:09:54;;;;;;;5.50;4.97;;;14.50;83.10;;;;;;5042645;28;20480;-48
2022/07/17 05:12:20;;;;;;;3.63;3.20;;;14.60;82.50;;;;;;5046196;28;20491;-49
2022/07/17 05:14:47;;;;;;;11.00;4.70;;;14.80;82.70;;;;;;5047678;28;20988;-48
2022/07/17 05:17:14;;;;;;;3.90;3.47;;;14.90;82.40;;;;;;5054994;28;20486;-50
2022/07/17 05:19:41;;;;;;;5.30;4.90;;;15.00;82.50;;;;;;5052412;28;20482;-50
2022/07/17 05:22:10;;;;;;;3.73;3.00;;;15.00;82.40;;;;;;5051994;28;20493;-49
2022/07/17 05:24:36;;;;;;;3.60;3.20;;;15.10;82.40;;;;;;5045904;28;20842;-49
2022/07/17 05:27:03;;;;;;;9.17;3.50;;;15.20;82.10;;;;;;5047872;28;20475;-49
2022/07/17 05:29:30;;;;;;;5.73;3.13;;;15.20;82.70;;;;;;5043589;28;20481;-49
2022/07/17 05:31:56;;;;;;;4.50;3.30;;;15.30;82.80;;;;;;5052432;28;20488;-49
2022/07/17 05:34:23;;;;;;;4.70;3.17;;;15.50;82.50;;;;;;5044913;28;20933;-50
2022/07/17 05:36:50;;;;;;;5.20;4.20;;;15.70;81.90;;;;;;5050624;28;20761;-49
2022/07/17 05:39:18;;;;;;;4.27;3.87;;;15.80;81.70;;;;;;5058526;28;20478;-49
2022/07/17 05:41:44;;;;;;;18.03;4.67;;;15.80;82.30;;;;;;5062692;28;20491;-49
2022/07/17 05:44:11;;;;;;;4.50;2.73;;;16.00;81.50;;;;;;5064577;28;20479;-49
2022/07/17 05:46:38;;;;;;;4.03;3.20;;;16.20;80.50;;;;;;5056933;28;20490;-50
2022/07/17 05:49:05;;;;;;;3.80;2.57;;;16.20;80.30;;;;;;5051173;28;20561;-49
2022/07/17 05:51:31;;;;;;;9.00;3.17;;;16.40;79.10;;;;;;5030906;28;20498;-49
2022/07/17 05:53:58;;;;;;;4.57;2.77;;;16.60;78.40;;;;;;5053678;28;21073;-49
2022/07/17 05:56:26;;;;;;;2.93;2.43;;;16.80;78.50;;;;;;5057314;28;20566;-50
2022/07/17 05:58:53;;;;;;;4.77;3.30;;;16.80;79.10;;;;;;5058104;28;20482;-49
2022/07/17 06:01:19;;;;;;;4.93;3.00;;;17.00;77.80;;;;;;5057305;28;21932;-49
2022/07/17 06:03:46;;;;;;;6.53;2.93;;;17.20;77.90;;;;;;5049552;28;20486;-49
2022/07/17 06:06:13;;;;;;;3.40;2.87;;;17.40;76.30;;;;;;5058334;28;20471;-49
2022/07/17 06:08:40;;;;;;;7.90;3.00;;;17.60;76.00;;;;;;5046733;28;20474;-49
2022/07/17 06:11:07;;;;;;;3.90;2.00;;;17.80;75.30;;;;;;5055813;28;20483;-49
2022/07/17 06:13:36;;;;;;;3.70;2.17;;;17.90;75.10;;;;;;5050458;28;20484;-49
2022/07/17 06:16:02;;;;;;;21.37;3.13;;;18.00;75.30;;;;;;5049647;28;20482;-49
2022/07/17 06:18:29;;;;;;;3.13;2.23;;;18.50;73.60;;;;;;5061732;28;20475;-49
2022/07/17 06:20:56;;;;;;;2.83;2.43;;;18.70;73.30;;;;;;5059882;28;20486;-49
2022/07/17 06:23:23;;;;;;;4.20;2.10;;;18.80;72.40;;;;;;5063184;28;20490;-50
2022/07/17 06:25:49;;;;;;;4.20;2.60;;;19.00;72.30;;;;;;5059426;28;20486;-50
2022/07/17 06:28:16;;;;;;;6.63;1.77;;;19.40;71.20;;;;;;5062838;28;20479;-49
2022/07/17 06:30:44;;;;;;;4.73;2.67;;;19.50;70.70;;;;;;5051164;28;20490;-49
2022/07/17 06:33:11;;;;;;;3.50;1.83;;;19.60;71.30;;;;;;5059952;28;20483;-49
2022/07/17 06:35:38;;;;;;;2.80;1.90;;;19.90;70.30;;;;;;5054109;28;20475;-49
2022/07/17 06:38:05;;;;;;;4.30;2.37;;;20.00;70.30;;;;;;5059947;28;20482;-49
2022/07/17 06:40:32;;;;;;;3.70;2.20;;;20.30;68.30;;;;;;5057686;28;21352;-50
2022/07/17 06:42:58;;;;;;;4.93;2.97;;;20.30;67.80;;;;;;5061272;28;20880;-49
2022/07/17 06:45:25;;;;;;;3.07;2.03;;;20.50;69.10;;;;;;5060172;28;20501;-50
2022/07/17 06:47:53;;;;;;;2.80;2.20;;;20.70;67.50;;;;;;5057901;28;20485;-49
2022/07/17 06:50:20;;;;;;;3.17;2.17;;;21.00;67.60;;;;;;5061898;28;21300;-50
2022/07/17 06:52:47;;;;;;;3.60;2.70;;;21.00;68.00;;;;;;5060312;28;20494;-49
2022/07/17 06:55:14;;;;;;;2.30;1.97;;;21.30;67.20;;;;;;5048534;28;20486;-49
2022/07/17 06:57:41;;;;;;;2.90;2.10;;;21.40;65.80;;;;;;5046960;28;21220;-50
2022/07/17 07:00:09;;;;;;;2.43;1.80;;;21.40;66.20;;;;;;5064023;28;20483;-49
2022/07/17 07:02:36;;;;;;;3.97;1.97;;;21.70;65.70;;;;;;5060291;28;20486;-50
2022/07/17 07:05:05;;;;;;;3.40;2.00;;;21.70;66.30;;;;;;5058259;28;20492;-50
2022/07/17 07:07:32;;;;;;;3.73;2.07;;;21.90;66.20;;;;;;5047750;28;20520;-50
2022/07/17 07:09:58;;;;;;;2.47;2.20;;;22.30;64.70;;;;;;5054683;28;20484;-49
2022/07/17 07:12:25;;;;;;;5.43;2.60;;;22.30;65.30;;;;;;5058835;28;20474;-50
2022/07/17 07:14:52;;;;;;;6.20;2.00;;;22.60;64.00;;;;;;5058793;28;20475;-48
2022/07/17 07:17:19;;;;;;;3.30;2.30;;;22.90;63.40;;;;;;5058938;28;20483;-49
2022/07/17 07:19:46;;;;;;;4.37;2.00;;;23.20;63.10;;;;;;5057446;28;20582;-49
2022/07/17 07:22:14;;;;;;;5.03;1.83;;;23.30;62.70;;;;;;5056466;28;20490;-50
2022/07/17 07:24:40;;;;;;;4.03;2.10;;;23.60;62.20;;;;;;5058274;28;20485;-49
2022/07/17 07:27:07;;;;;;;4.27;1.90;;;23.60;62.50;;;;;;5060269;28;20474;-50
2022/07/17 07:29:34;;;;;;;2.53;1.87;;;23.80;61.50;;;;;;5060165;28;20504;-49
2022/07/17 07:32:01;;;;;;;5.87;2.63;;;24.00;62.10;;;;;;5058577;28;20482;-49
2022/07/17 07:34:28;;;;;;;4.63;1.67;;;24.10;61.00;;;;;;5061581;28;20475;-49
2022/07/17 07:36:54;;;;;;;3.33;2.00;;;24.30;62.10;;;;;;5055650;28;20984;-49
2022/07/17 07:39:22;;;;;;;4.00;2.00;;;24.80;59.70;;;;;;5059248;28;20486;-50
2022/07/17 07:41:49;;;;;;;5.07;1.90;;;24.70;60.30;;;;;;5063316;28;20498;-50
2022/07/17 07:44:17;;;;;;;3.13;1.87;;;25.00;60.10;;;;;;5057630;28;20531;-49
2022/07/17 07:46:45;;;;;;;4.70;2.30;;;25.20;59.70;;;;;;5049300;28;20479;-50
2022/07/17 07:49:12;;;;;;;1.80;1.07;;;25.40;58.10;;;;;;5061153;28;21219;-50
2022/07/17 07:51:38;;;;;;;4.53;1.97;;;25.50;58.00;;;;;;5063432;28;20901;-49
2022/07/17 07:54:05;;;;;;;6.03;1.77;;;25.50;58.00;;;;;;5050928;28;20929;-50
2022/07/17 07:56:33;;;;;;;3.50;1.90;;;25.60;57.30;;;;;;5058867;28;20491;-49
2022/07/17 07:59:00;;;;;;;3.67;2.20;;;25.70;57.90;;;;;;5057778;28;20486;-50
2022/07/17 08:01:27;;;;;;;2.63;1.50;;;26.00;57.30;;;;;;5059816;28;20518;-50
2022/07/17 08:03:53;;;;;;;5.53;3.17;;;26.10;57.10;;;;;;5050417;28;20944;-50
2022/07/17 08:06:20;;;;;;;4.13;2.20;;;26.20;56.90;;;;;;5058462;28;20478;-49
2022/07/17 08:08:47;;;;;;;2.97;1.77;;;26.30;56.10;;;;;;5050043;28;20470;-50
2022/07/17 08:11:14;;;;;;;2.80;1.70;;;26.30;55.90;;;;;;5048118;28;21420;-50
2022/07/17 08:13:43;;;;;;;7.30;2.43;;;26.40;57.00;;;;;;5061881;28;20481;-50
2022/07/17 08:16:09;;;;;;;5.03;1.87;;;26.60;56.70;;;;;;5049377;28;21160;-50
2022/07/17 08:18:36;;;;;;;2.97;1.87;;;26.70;56.60;;;;;;5061054;28;20490;-51
2022/07/17 08:21:03;;;;;;;2.83;1.80;;;26.90;57.10;;;;;;5064160;28;20494;-50
2022/07/17 08:23:30;;;;;;;2.97;1.90;;;27.00;55.80;;;;;;5064876;28;20489;-51
2022/07/17 08:25:56;;;;;;;5.20;1.93;;;27.10;55.70;;;;;;5058507;28;20738;-50
2022/07/17 08:28:23;;;;;;;2.40;1.50;;;27.30;54.70;;;;;;5056816;28;20483;-50
2022/07/17 08:30:52;;;;;;;2.83;2.00;;;27.50;55.80;;;;;;5048250;28;21067;-50
2022/07/17 08:33:19;;;;;;;7.27;1.83;;;27.60;55.10;;;;;;5055435;28;20479;-51
2022/07/17 08:35:45;;;;;;;5.30;2.50;;;27.60;55.20;;;;;;5051452;28;21516;-50
2022/07/17 08:38:12;;;;;;;5.60;2.20;;;27.70;54.20;;;;;;5056164;28;20491;-51
2022/07/17 08:40:40;;;;;;;3.40;1.57;;;27.70;54.50;;;;;;5057847;28;20495;-50
2022/07/17 08:43:08;;;;;;;4.37;1.93;;;27.80;54.40;;;;;;5054805;28;20478;-51
2022/07/17 08:45:36;;;;;;;2.97;2.67;;;28.00;54.90;;;;;;5058982;28;20487;-51
2022/07/17 08:48:05;;;;;;;5.90;2.27;;;28.10;53.60;;;;;;5046376;28;21042;-51
2022/07/17 08:50:33;;;;;;;5.87;2.13;;;28.20;54.30;;;;;;5056176;28;20483;-51
2022/07/17 08:53:01;;;;;;;11.80;2.43;;;28.40;53.20;;;;;;5055705;28;20918;-51
2022/07/17 08:55:28;;;;;;;3.30;2.30;;;28.50;53.90;;;;;;5043705;28;20491;-51
2022/07/17 08:57:55;;;;;;;5.33;2.57;;;28.50;53.70;;;;;;5050036;28;20505;-51
2022/07/17 09:00:24;;;;;;;2.70;1.90;;;28.60;53.60;;;;;;5020944;28;20492;-50
2022/07/17 09:02:55;;;;;;;3.70;2.20;;;28.80;54.00;;;;;;5055223;28;20479;-51
2022/07/17 09:05:25;;;;;;;2.87;1.87;;;28.90;52.70;;;;;;5056456;28;20512;-51
2022/07/17 09:07:52;;;;;;;4.73;2.43;;;28.60;52.40;;;;;;5029197;28;20477;-51
2022/07/17 09:10:19;;;;;;;3.00;1.53;;;28.70;53.70;;;;;;5063627;28;20501;-52
2022/07/17 09:12:46;;;;;;;3.50;2.30;;;28.80;53.30;;;;;;5057203;28;20494;-52
2022/07/17 09:15:17;;;;;;;3.90;2.03;;;29.10;52.40;;;;;;5056672;28;20483;-51
2022/07/17 09:17:51;;;;;;;5.63;2.60;;;29.10;53.40;;;;;;5057071;28;20570;-51
2022/07/17 09:20:19;;;;;;;2.30;1.67;;;29.30;53.90;;;;;;5061653;28;21081;-52
2022/07/17 09:22:56;;;;;;;3.43;2.10;;;29.50;53.60;;;;;;5058284;28;20453;-52
2022/07/17 09:25:33;;;;;;;3.37;2.10;;;29.60;52.70;;;;;;5059598;28;20475;-51
2022/07/17 09:28:02;;;;;;;2.33;1.47;;;29.70;52.60;;;;;;5050219;28;20986;-52
2022/07/17 09:30:29;;;;;;;2.63;1.90;;;30.00;52.00;;;;;;5064188;28;21674;-52
2022/07/17 09:32:56;;;;;;;2.43;1.83;;;30.10;51.90;;;;;;5061896;28;20709;-51
2022/07/17 09:35:24;;;;;;;2.67;1.97;;;30.30;50.90;;;;;;5062663;28;21291;-52
2022/07/17 09:37:54;;;;;;;2.40;2.10;;;30.30;51.30;;;;;;5057214;28;20808;-52
2022/07/17 09:43:08;;;;;;;4.33;1.90;;;30.50;51.80;;;;;;5062531;28;20474;-52
2022/07/17 09:45:35;;;;;;;2.10;1.60;;;30.60;50.60;;;;;;5060992;28;20570;-52
2022/07/17 09:48:03;;;;;;;1.90;1.40;;;30.80;50.10;;;;;;5058700;28;20478;-52
2022/07/17 09:50:30;;;;;;;2.40;1.37;;;30.80;50.10;;;;;;5061093;28;20485;-52
2022/07/17 09:52:58;;;;;;;5.80;2.07;;;30.90;49.90;;;;;;5064110;28;21039;-52
2022/07/17 09:55:30;;;;;;;3.90;1.60;;;30.70;48.80;;;;;;5066194;28;20519;-52
2022/07/17 09:57:59;;;;;;;2.00;1.37;;;30.70;49.20;;;;;;5028062;28;20773;-51
2022/07/17 10:00:26;;;;;;;2.30;1.87;;;30.80;49.90;;;;;;5033895;28;20475;-51
2022/07/17 10:02:54;;;;;;;2.57;1.77;;;31.00;49.80;;;;;;5061683;28;20475;-52
2022/07/17 10:05:20;;;;;;;4.93;1.70;;;31.10;50.00;;;;;;5063578;28;20483;-52
2022/07/17 10:07:48;;;;;;;4.10;2.03;;;31.10;50.50;;;;;;5055038;28;20486;-51
2022/07/17 10:10:18;;;;;;;2.20;1.63;;;31.20;48.90;;;;;;5057171;28;20490;-51
2022/07/17 10:12:50;;;;;;;5.03;1.30;;;31.10;48.80;;;;;;5061153;28;20562;-52
2022/07/17 10:15:19;;;;;;;5.53;1.83;;;31.10;49.40;;;;;;5061561;28;20493;-52
2022/07/17 10:17:46;;;;;;;1.90;1.50;;;31.20;49.20;;;;;;5054110;28;20490;-52
2022/07/17 10:20:14;;;;;;;1.90;1.50;;;31.40;50.20;;;;;;5051842;28;20487;-51
2022/07/17 10:22:45;;;;;;;2.13;1.53;;;31.60;47.40;;;;;;5049563;28;20569;-52
2022/07/17 10:25:15;;;;;;;2.20;1.93;;;31.70;48.80;;;;;;5060676;28;20463;-51
2022/07/17 10:27:49;;;;;;;3.30;1.80;;;31.80;47.10;;;;;;5059881;28;20966;-52
2022/07/17 10:30:23;;;;;;;2.63;1.97;;;31.90;47.60;;;;;;5056553;28;20842;-52
2022/07/17 10:32:55;;;;;;;2.30;1.80;;;31.90;48.10;;;;;;5060101;28;20479;-52
2022/07/17 10:35:22;;;;;;;5.93;2.13;;;32.00;47.20;;;;;;5055517;28;20523;-53
2022/07/17 10:37:49;;;;;;;5.60;2.20;;;32.10;48.40;;;;;;5056764;28;21058;-52
2022/07/17 10:40:18;;;;;;;4.10;1.50;;;32.10;47.20;;;;;;5061208;28;20486;-52
2022/07/17 10:43:02;;;;;;;2.20;1.47;;;32.10;47.80;;;;;;5050825;28;20487;-52
2022/07/17 10:45:34;;;;;;;2.50;1.80;;;32.10;46.60;;;;;;5032784;28;21195;-52
2022/07/17 10:48:05;;;;;;;3.50;1.57;;;32.30;47.50;;;;;;5054948;28;20446;-52
2022/07/17 10:50:35;;;;;;;3.03;1.73;;;32.20;45.00;;;;;;5032866;28;20844;-52
2022/07/17 10:53:07;;;;;;;2.47;1.37;;;32.40;46.60;;;;;;5055732;28;20476;-51
2022/07/17 10:55:35;;;;;;;2.23;1.77;;;32.30;44.90;;;;;;5037419;28;20470;-52
2022/07/17 10:58:04;;;;;;;3.27;1.50;;;32.30;46.40;;;;;;5058117;28;20475;-52
2022/07/17 11:00:31;;;;;;;3.50;1.53;;;32.40;47.40;;;;;;5035981;28;20881;-52
2022/07/17 11:03:08;;;;;;;3.23;1.73;;;32.50;44.70;;;;;;5057814;28;20467;-52
2022/07/17 11:05:35;;;;;;;2.70;1.30;;;32.50;45.60;;;;;;5044808;28;20932;-53
2022/07/17 11:08:02;;;;;;;2.73;1.47;;;32.50;44.70;;;;;;5058804;28;20488;-52
2022/07/17 11:10:29;;;;;;;3.23;1.30;;;32.50;45.60;;;;;;5034134;28;20511;-52
2022/07/17 11:13:10;;;;;;;2.40;1.80;;;32.30;45.10;;;;;;5056755;28;20486;-51
2022/07/17 11:15:42;;;;;;;8.10;1.60;;;31.60;42.40;;;;;;5046290;28;20562;-51
2022/07/17 11:18:15;;;;;;;2.10;1.70;;;31.60;44.50;;;;;;5055085;28;20475;-52
2022/07/17 11:20:53;;;;;;;2.80;1.40;;;32.00;44.70;;;;;;5058695;28;20483;-53
2022/07/17 11:23:21;;;;;;;1.87;1.30;;;32.00;45.00;;;;;;5061928;28;20457;-52
2022/07/17 11:25:56;;;;;;;3.30;1.27;;;32.10;42.50;;;;;;5058332;28;20490;-53
2022/07/17 11:28:33;;;;;;;2.13;1.30;;;32.10;43.40;;;;;;5058784;28;20456;-51
2022/07/17 11:31:01;;;;;;;1.80;1.20;;;32.10;43.00;;;;;;5056768;28;20463;-52
2022/07/17 11:33:28;;;;;;;5.70;1.40;;;32.20;40.90;;;;;;5062296;28;21037;-52
2022/07/17 11:35:55;;;;;;;3.77;1.73;;;32.20;42.10;;;;;;5060168;28;20471;-52
2022/07/17 11:38:29;;;;;;;1.90;1.10;;;32.30;45.30;;;;;;5055517;28;20471;-52
2022/07/17 11:40:56;;;;;;;1.80;1.30;;;32.30;45.10;;;;;;5059520;28;20957;-52
2022/07/17 11:43:23;;;;;;;2.40;1.40;;;32.60;44.40;;;;;;5061268;28;20483;-52
2022/07/17 11:45:51;;;;;;;2.23;1.63;;;32.70;44.70;;;;;;5058872;28;20951;-52
2022/07/17 11:48:18;;;;;;;2.83;1.40;;;32.80;45.00;;;;;;5051500;28;20494;-51
2022/07/17 11:50:56;;;;;;;3.00;2.70;;;32.40;41.50;;;;;;5061345;28;20487;-51
2022/07/17 11:53:33;;;;;;;2.07;1.47;;;32.20;41.90;;;;;;5058339;28;20796;-52
2022/07/17 11:56:00;;;;;;;2.53;1.17;;;32.30;46.40;;;;;;5051587;28;20550;-52
2022/07/17 11:58:27;;;;;;;2.20;1.50;;;32.50;45.80;;;;;;5058103;28;20478;-52
2022/07/17 12:01:03;;;;;;;2.57;1.90;;;32.70;44.00;;;;;;5053996;28;20460;-52
2022/07/17 12:03:30;;;;;;;1.97;1.27;;;32.90;44.20;;;;;;5052440;28;20450;-52
2022/07/17 12:05:57;;;;;;;2.50;1.67;;;33.00;42.60;;;;;;5053122;28;20502;-52
2022/07/17 12:08:24;;;;;;;1.90;1.57;;;33.10;44.40;;;;;;5055500;28;20491;-52
2022/07/17 12:11:02;;;;;;;2.43;1.67;;;33.00;43.10;;;;;;5052869;28;20472;-52
2022/07/17 12:13:42;;;;;;;2.60;1.53;;;33.10;43.70;;;;;;5053941;28;20478;-52
2022/07/17 12:16:28;;;;;;;2.43;1.63;;;33.20;44.10;;;;;;5048155;28;20565;-52
2022/07/17 12:19:04;;;;;;;2.27;1.90;;;33.40;45.00;;;;;;5048453;28;20488;-52
2022/07/17 12:21:33;;;;;;;3.03;1.80;;;33.50;42.60;;;;;;5051906;28;20482;-52
2022/07/17 12:24:02;;;;;;;3.63;1.37;;;33.50;43.10;;;;;;5059179;28;20480;-53
2022/07/17 12:26:29;;;;;;;3.27;1.60;;;33.50;42.30;;;;;;5054824;28;20532;-52
2022/07/17 12:28:56;;;;;;;2.67;1.73;;;33.00;40.40;;;;;;5052354;28;20744;-51
2022/07/17 12:31:24;;;;;;;5.30;1.50;;;32.80;44.00;;;;;;5052256;28;20449;-52
2022/07/17 12:33:53;;;;;;;2.93;1.30;;;32.80;44.00;;;;;;5056330;28;20487;-52
2022/07/17 12:36:21;;;;;;;2.30;1.40;;;33.00;44.20;;;;;;5055804;28;20822;-52
2022/07/17 12:38:48;;;;;;;2.97;1.40;;;33.20;42.50;;;;;;5051225;28;20488;-52
2022/07/17 12:41:15;;;;;;;1.70;1.10;;;33.40;43.80;;;;;;5061496;28;20490;-52
2022/07/17 12:43:42;;;;;;;2.23;1.60;;;33.60;44.50;;;;;;5061246;28;20628;-52
2022/07/17 12:46:09;;;;;;;3.80;1.70;;;33.90;41.90;;;;;;5043190;28;20483;-52
2022/07/17 12:48:39;;;;;;;2.40;1.27;;;33.80;40.90;;;;;;5049650;28;21196;-55
2022/07/17 12:51:07;;;;;;;2.93;1.97;;;33.80;41.70;;;;;;5052066;28;20446;-52